sensor_id;sensor_type;location;lat;lon;timestamp;pressure;altitude;pressure_sealevel;temperature;humidity
15260;BME280;34462;51.368;12.364;2023-06-14T00:00:16;20596.38;;;-141.84;56.31
15260;BME280;34462;51.368;12.364;2023-06-14T00:02:45;20569.94;;;-141.84;56.01
15260;BME280;34462;51.368;12.364;2023-06-14T00:05:13;20594.34;;;-141.84;55.81
15260;BME280;34462;51.368;12.364;2023-06-14T00:07:42;20576.03;;;-141.84;55.95
15260;BME280;34462;51.368;12.364;2023-06-14T00:10:11;20588.25;;;-141.84;56.20
15260;BME280;34462;51.368;12.364;2023-06-14T00:12:40;20598.41;;;-141.84;56.34
15260;BME280;34462;51.368;12.364;2023-06-14T00:15:10;20535.41;;;-141.84;57.05
15260;BME280;34462;51.368;12.364;2023-06-14T00:17:39;20602.47;;;-141.84;56.91
15260;BME280;34462;51.368;12.364;2023-06-14T00:20:08;20490.66;;;-141.84;57.76
15260;BME280;34462;51.368;12.364;2023-06-14T00:22:37;20569.94;;;-141.84;56.81
15260;BME280;34462;51.368;12.364;2023-06-14T00:25:07;20541.50;;;-141.84;56.89
15260;BME280;34462;51.368;12.364;2023-06-14T00:27:55;20488.63;;;-141.84;57.92
15260;BME280;34462;51.368;12.364;2023-06-14T00:30:25;20502.88;;;-141.84;57.57
15260;BME280;34462;51.368;12.364;2023-06-14T00:32:58;20511.00;;;-141.84;57.71
15260;BME280;34462;51.368;12.364;2023-06-14T00:35:27;20474.41;;;-141.84;58.01
15260;BME280;34462;51.368;12.364;2023-06-14T00:37:55;20490.66;;;-141.84;58.15
15260;BME280;34462;51.368;12.364;2023-06-14T00:40:24;20527.25;;;-141.84;58.05
15260;BME280;34462;51.368;12.364;2023-06-14T00:42:52;20480.50;;;-141.84;58.51
15260;BME280;34462;51.368;12.364;2023-06-14T00:45:21;20496.78;;;-141.84;58.30
15260;BME280;34462;51.368;12.364;2023-06-14T00:47:52;20496.78;;;-141.84;58.52
15260;BME280;34462;51.368;12.364;2023-06-14T00:50:22;20441.88;;;-141.84;59.01
15260;BME280;34462;51.368;12.364;2023-06-14T00:52:51;20464.25;;;-141.84;59.10
15260;BME280;34462;51.368;12.364;2023-06-14T00:55:20;20476.44;;;-141.84;59.06
15260;BME280;34462;51.368;12.364;2023-06-14T00:57:49;20498.81;;;-141.84;58.95
15260;BME280;34462;51.368;12.364;2023-06-14T01:00:18;20468.31;;;-141.84;59.39
15260;BME280;34462;51.368;12.364;2023-06-14T01:02:47;20486.59;;;-141.84;59.15
15260;BME280;34462;51.368;12.364;2023-06-14T01:05:18;20484.56;;;-141.84;58.66
15260;BME280;34462;51.368;12.364;2023-06-14T01:08:01;20470.34;;;-141.84;59.34
15260;BME280;34462;51.368;12.364;2023-06-14T01:10:40;20439.84;;;-141.84;60.24
15260;BME280;34462;51.368;12.364;2023-06-14T01:13:14;20443.91;;;-141.84;59.81
15260;BME280;34462;51.368;12.364;2023-06-14T01:15:45;20417.50;;;-141.84;60.48
15260;BME280;34462;51.368;12.364;2023-06-14T01:18:14;20409.38;;;-141.84;60.20
15260;BME280;34462;51.368;12.364;2023-06-14T01:20:47;20452.06;;;-141.84;60.10
15260;BME280;34462;51.368;12.364;2023-06-14T01:23:20;20458.16;;;-141.84;59.88
15260;BME280;34462;51.368;12.364;2023-06-14T01:25:49;20472.38;;;-141.84;59.74
15260;BME280;34462;51.368;12.364;2023-06-14T01:28:21;20476.44;;;-141.84;59.96
15260;BME280;34462;51.368;12.364;2023-06-14T01:30:51;20421.56;;;-141.84;60.64
15260;BME280;34462;51.368;12.364;2023-06-14T01:33:24;20441.88;;;-141.84;60.61
15260;BME280;34462;51.368;12.364;2023-06-14T01:35:54;20409.38;;;-141.84;61.18
15260;BME280;34462;51.368;12.364;2023-06-14T01:38:26;20415.47;;;-141.84;61.29
15260;BME280;34462;51.368;12.364;2023-06-14T01:40:57;20415.47;;;-141.84;61.23
15260;BME280;34462;51.368;12.364;2023-06-14T01:43:26;20362.63;;;-141.84;62.02
15260;BME280;34462;51.368;12.364;2023-06-14T01:45:59;20376.84;;;-141.84;61.15
15260;BME280;34462;51.368;12.364;2023-06-14T01:48:28;20407.34;;;-141.84;61.88
15260;BME280;34462;51.368;12.364;2023-06-14T01:50:57;20445.94;;;-141.84;61.43
15260;BME280;34462;51.368;12.364;2023-06-14T01:53:27;20360.59;;;-141.84;62.06
15260;BME280;34462;51.368;12.364;2023-06-14T01:55:55;20354.47;;;-141.84;62.61
15260;BME280;34462;51.368;12.364;2023-06-14T01:58:24;20374.81;;;-141.84;62.42
15260;BME280;34462;51.368;12.364;2023-06-14T02:00:53;20378.88;;;-141.84;62.60
15260;BME280;34462;51.368;12.364;2023-06-14T02:03:24;20399.19;;;-141.84;61.90
15260;BME280;34462;51.368;12.364;2023-06-14T02:05:52;20380.91;;;-141.84;62.40
15260;BME280;34462;51.368;12.364;2023-06-14T02:08:21;20364.66;;;-141.84;62.75
15260;BME280;34462;51.368;12.364;2023-06-14T02:10:52;20370.75;;;-141.84;63.03
15260;BME280;34462;51.368;12.364;2023-06-14T02:13:21;20358.56;;;-141.84;63.05
15260;BME280;34462;51.368;12.364;2023-06-14T02:15:49;20348.38;;;-141.84;63.00
15260;BME280;34462;51.368;12.364;2023-06-14T02:18:22;20354.47;;;-141.84;63.19
15260;BME280;34462;51.368;12.364;2023-06-14T02:20:51;20350.41;;;-141.84;63.12
15260;BME280;34462;51.368;12.364;2023-06-14T02:23:19;20362.63;;;-141.84;63.55
15260;BME280;34462;51.368;12.364;2023-06-14T02:25:48;20330.09;;;-141.84;63.52
15260;BME280;34462;51.368;12.364;2023-06-14T02:28:18;20338.22;;;-141.84;64.03
15260;BME280;34462;51.368;12.364;2023-06-14T02:30:46;20297.56;;;-141.84;63.78
15260;BME280;34462;51.368;12.364;2023-06-14T02:33:15;20309.75;;;-141.84;64.17
15260;BME280;34462;51.368;12.364;2023-06-14T02:35:44;20348.38;;;-141.84;64.28
15260;BME280;34462;51.368;12.364;2023-06-14T02:38:13;20309.75;;;-141.84;64.44
15260;BME280;34462;51.368;12.364;2023-06-14T02:40:42;20309.75;;;-141.84;64.33
15260;BME280;34462;51.368;12.364;2023-06-14T02:43:10;20342.28;;;-141.84;63.83
15260;BME280;34462;51.368;12.364;2023-06-14T02:45:40;20315.88;;;-141.84;63.88
15260;BME280;34462;51.368;12.364;2023-06-14T02:48:09;20309.75;;;-141.84;64.88
15260;BME280;34462;51.368;12.364;2023-06-14T02:50:38;20305.69;;;-141.84;64.69
15260;BME280;34462;51.368;12.364;2023-06-14T02:53:07;20338.22;;;-141.84;64.02
15260;BME280;34462;51.368;12.364;2023-06-14T02:55:35;20319.94;;;-141.84;64.50
15260;BME280;34462;51.368;12.364;2023-06-14T02:58:07;20338.22;;;-141.84;64.08
15260;BME280;34462;51.368;12.364;2023-06-14T03:00:35;20299.59;;;-141.84;64.43
15260;BME280;34462;51.368;12.364;2023-06-14T03:03:07;20328.06;;;-141.84;64.57
15260;BME280;34462;51.368;12.364;2023-06-14T03:05:43;20281.31;;;-141.84;64.71
15260;BME280;34462;51.368;12.364;2023-06-14T03:08:13;20315.88;;;-141.84;65.09
15260;BME280;34462;51.368;12.364;2023-06-14T03:10:44;20305.69;;;-141.84;65.16
15260;BME280;34462;51.368;12.364;2023-06-14T03:13:12;20303.66;;;-141.84;65.14
15260;BME280;34462;51.368;12.364;2023-06-14T03:15:41;20289.44;;;-141.84;65.04
15260;BME280;34462;51.368;12.364;2023-06-14T03:18:11;20326.03;;;-141.84;64.38
15260;BME280;34462;51.368;12.364;2023-06-14T03:20:40;20342.28;;;-141.84;64.22
15260;BME280;34462;51.368;12.364;2023-06-14T03:23:09;20317.91;;;-141.84;65.23
15260;BME280;34462;51.368;12.364;2023-06-14T03:25:38;20289.44;;;-141.84;65.04
15260;BME280;34462;51.368;12.364;2023-06-14T03:28:09;20289.44;;;-141.84;65.35
15260;BME280;34462;51.368;12.364;2023-06-14T03:30:37;20258.94;;;-141.84;65.62
15260;BME280;34462;51.368;12.364;2023-06-14T03:33:06;20336.19;;;-141.84;64.78
15260;BME280;34462;51.368;12.364;2023-06-14T03:35:37;20324.00;;;-141.84;65.08
15260;BME280;34462;51.368;12.364;2023-06-14T03:38:05;20279.28;;;-141.84;65.11
15260;BME280;34462;51.368;12.364;2023-06-14T03:40:34;20301.63;;;-141.84;65.43
15260;BME280;34462;51.368;12.364;2023-06-14T03:43:02;20346.34;;;-141.84;64.88
15260;BME280;34462;51.368;12.364;2023-06-14T03:45:31;20319.94;;;-141.84;65.07
15260;BME280;34462;51.368;12.364;2023-06-14T03:47:59;20281.31;;;-141.84;64.95
15260;BME280;34462;51.368;12.364;2023-06-14T03:50:29;20330.09;;;-141.84;65.34
15260;BME280;34462;51.368;12.364;2023-06-14T03:52:59;20305.69;;;-141.84;64.73
15260;BME280;34462;51.368;12.364;2023-06-14T03:55:28;20315.88;;;-141.84;64.67
15260;BME280;34462;51.368;12.364;2023-06-14T03:58:01;20370.75;;;-141.84;64.10
15260;BME280;34462;51.368;12.364;2023-06-14T04:00:29;20328.06;;;-141.84;64.61
15260;BME280;34462;51.368;12.364;2023-06-14T04:02:59;20350.41;;;-141.84;64.29
15260;BME280;34462;51.368;12.364;2023-06-14T04:05:28;20378.88;;;-141.84;64.06
15260;BME280;34462;51.368;12.364;2023-06-14T04:07:58;20332.13;;;-141.84;64.27
15260;BME280;34462;51.368;12.364;2023-06-14T04:10:28;20374.81;;;-141.84;63.59
15260;BME280;34462;51.368;12.364;2023-06-14T04:12:56;20382.94;;;-141.84;64.17
15260;BME280;34462;51.368;12.364;2023-06-14T04:15:25;20330.09;;;-141.84;64.40
15260;BME280;34462;51.368;12.364;2023-06-14T04:17:55;20368.72;;;-141.84;64.22
15260;BME280;34462;51.368;12.364;2023-06-14T04:20:24;20374.81;;;-141.84;63.54
15260;BME280;34462;51.368;12.364;2023-06-14T04:22:53;20397.16;;;-141.84;63.75
15260;BME280;34462;51.368;12.364;2023-06-14T04:25:25;20411.41;;;-141.84;63.24
15260;BME280;34462;51.368;12.364;2023-06-14T04:27:56;20407.34;;;-141.84;63.71
15260;BME280;34462;51.368;12.364;2023-06-14T04:30:24;20411.41;;;-141.84;63.07
15260;BME280;34462;51.368;12.364;2023-06-14T04:32:54;20431.72;;;-141.84;62.67
15260;BME280;34462;51.368;12.364;2023-06-14T04:35:23;20458.16;;;-141.84;62.14
15260;BME280;34462;51.368;12.364;2023-06-14T04:37:52;20484.56;;;-141.84;62.06
15260;BME280;34462;51.368;12.364;2023-06-14T04:40:22;20460.19;;;-141.84;61.96
15260;BME280;34462;51.368;12.364;2023-06-14T04:42:52;20462.22;;;-141.84;61.76
15260;BME280;34462;51.368;12.364;2023-06-14T04:45:21;20502.88;;;-141.84;61.40
15260;BME280;34462;51.368;12.364;2023-06-14T04:47:50;20527.25;;;-141.84;61.10
15260;BME280;34462;51.368;12.364;2023-06-14T04:50:25;20787.47;;;-141.84;57.04
15260;BME280;34462;51.368;12.364;2023-06-14T04:52:53;21080.19;;;-141.84;51.66
15260;BME280;34462;51.368;12.364;2023-06-14T04:55:22;21460.41;;;-141.84;46.81
15260;BME280;34462;51.368;12.364;2023-06-14T04:57:53;21598.66;;;-141.84;44.71
15260;BME280;34462;51.368;12.364;2023-06-14T05:00:22;21895.53;;;-141.84;42.38
15260;BME280;34462;51.368;12.364;2023-06-14T05:02:50;22094.81;;;-141.84;40.05
15260;BME280;34462;51.368;12.364;2023-06-14T05:05:20;22135.47;;;-141.84;40.59
15260;BME280;34462;51.368;12.364;2023-06-14T05:07:49;22342.91;;;-141.84;38.74
15260;BME280;34462;51.368;12.364;2023-06-14T05:10:18;22401.88;;;-141.84;37.45
15260;BME280;34462;51.368;12.364;2023-06-14T05:12:46;22589.00;;;-141.84;37.88
15260;BME280;34462;51.368;12.364;2023-06-14T05:15:16;22521.88;;;-141.84;37.21
15260;BME280;34462;51.368;12.364;2023-06-14T05:17:46;22532.06;;;-141.84;37.31
15260;BME280;34462;51.368;12.364;2023-06-14T05:20:20;22774.06;;;-141.84;36.25
15260;BME280;34462;51.368;12.364;2023-06-14T05:22:50;22725.25;;;-141.84;36.55
15260;BME280;34462;51.368;12.364;2023-06-14T05:25:19;22798.47;;;-141.84;35.89
15260;BME280;34462;51.368;12.364;2023-06-14T05:27:48;22676.44;;;-141.84;35.81
15260;BME280;34462;51.368;12.364;2023-06-14T05:30:19;22582.91;;;-141.84;36.32
15260;BME280;34462;51.368;12.364;2023-06-14T05:32:47;22444.59;;;-141.84;37.43
15260;BME280;34462;51.368;12.364;2023-06-14T05:35:16;22373.41;;;-141.84;38.15
15260;BME280;34462;51.368;12.364;2023-06-14T05:37:45;22227.00;;;-141.84;38.91
15260;BME280;34462;51.368;12.364;2023-06-14T05:40:15;21956.53;;;-141.84;41.05
15260;BME280;34462;51.368;12.364;2023-06-14T05:42:44;21639.31;;;-141.84;43.54
15260;BME280;34462;51.368;12.364;2023-06-14T05:45:13;21393.31;;;-141.84;46.37
15260;BME280;34462;51.368;12.364;2023-06-14T05:47:45;21273.34;;;-141.84;47.87
15260;BME280;34462;51.368;12.364;2023-06-14T05:50:13;21222.53;;;-141.84;48.92
15260;BME280;34462;51.368;12.364;2023-06-14T05:52:42;21155.44;;;-141.84;49.12
15260;BME280;34462;51.368;12.364;2023-06-14T05:55:10;21145.25;;;-141.84;49.65
15260;BME280;34462;51.368;12.364;2023-06-14T05:57:41;21161.53;;;-141.84;49.91
15260;BME280;34462;51.368;12.364;2023-06-14T06:00:10;21147.28;;;-141.84;50.12
15260;BME280;34462;51.368;12.364;2023-06-14T06:02:42;21145.25;;;-141.84;50.67
15260;BME280;34462;51.368;12.364;2023-06-14T06:05:13;21137.13;;;-141.84;50.67
15260;BME280;34462;51.368;12.364;2023-06-14T06:07:42;21102.56;;;-141.84;51.00
15260;BME280;34462;51.368;12.364;2023-06-14T06:10:11;21082.25;;;-141.84;51.07
15260;BME280;34462;51.368;12.364;2023-06-14T06:12:41;21068.00;;;-141.84;51.46
15260;BME280;34462;51.368;12.364;2023-06-14T06:15:11;21114.75;;;-141.84;50.71
15260;BME280;34462;51.368;12.364;2023-06-14T06:17:40;21116.78;;;-141.84;50.54
15260;BME280;34462;51.368;12.364;2023-06-14T06:20:24;21185.91;;;-141.84;50.60
15260;BME280;34462;51.368;12.364;2023-06-14T06:22:57;21196.09;;;-141.84;49.81
15260;BME280;34462;51.368;12.364;2023-06-14T06:25:26;21214.38;;;-141.84;49.72
15260;BME280;34462;51.368;12.364;2023-06-14T06:27:55;21218.44;;;-141.84;49.71
15260;BME280;34462;51.368;12.364;2023-06-14T06:30:25;21240.81;;;-141.84;49.57
15260;BME280;34462;51.368;12.364;2023-06-14T06:32:53;21240.81;;;-141.84;49.37
15260;BME280;34462;51.368;12.364;2023-06-14T06:35:24;21295.72;;;-141.84;49.12
15260;BME280;34462;51.368;12.364;2023-06-14T06:37:53;21279.44;;;-141.84;49.26
15260;BME280;34462;51.368;12.364;2023-06-14T06:40:22;21301.81;;;-141.84;48.53
15260;BME280;34462;51.368;12.364;2023-06-14T06:42:51;21348.56;;;-141.84;48.48
15260;BME280;34462;51.368;12.364;2023-06-14T06:45:20;21277.41;;;-141.84;48.53
15260;BME280;34462;51.368;12.364;2023-06-14T06:47:52;21236.75;;;-141.84;49.52
15260;BME280;34462;51.368;12.364;2023-06-14T06:50:20;21250.97;;;-141.84;49.63
15260;BME280;34462;51.368;12.364;2023-06-14T06:52:51;21204.22;;;-141.84;49.79
15260;BME280;34462;51.368;12.364;2023-06-14T06:55:20;21238.78;;;-141.84;49.11
15260;BME280;34462;51.368;12.364;2023-06-14T06:57:49;21212.34;;;-141.84;48.87
15260;BME280;34462;51.368;12.364;2023-06-14T07:00:20;21265.22;;;-141.84;48.99
15260;BME280;34462;51.368;12.364;2023-06-14T07:02:49;21181.84;;;-141.84;49.99
15260;BME280;34462;51.368;12.364;2023-06-14T07:05:18;21187.97;;;-141.84;49.91
15260;BME280;34462;51.368;12.364;2023-06-14T07:07:47;21187.97;;;-141.84;48.94
15260;BME280;34462;51.368;12.364;2023-06-14T07:10:17;21230.66;;;-141.84;48.34
15260;BME280;34462;51.368;12.364;2023-06-14T07:12:45;21269.28;;;-141.84;48.48
15260;BME280;34462;51.368;12.364;2023-06-14T07:15:14;21269.28;;;-141.84;48.41
15260;BME280;34462;51.368;12.364;2023-06-14T07:17:43;21287.56;;;-141.84;47.63
15260;BME280;34462;51.368;12.364;2023-06-14T07:20:13;21255.03;;;-141.84;47.68
15260;BME280;34462;51.368;12.364;2023-06-14T07:22:43;21307.91;;;-141.84;48.01
15260;BME280;34462;51.368;12.364;2023-06-14T07:25:13;21348.56;;;-141.84;47.75
15260;BME280;34462;51.368;12.364;2023-06-14T07:27:46;21350.59;;;-141.84;47.42
15260;BME280;34462;51.368;12.364;2023-06-14T07:30:14;21328.25;;;-141.84;47.22
15260;BME280;34462;51.368;12.364;2023-06-14T07:32:43;21348.56;;;-141.84;47.34
15260;BME280;34462;51.368;12.364;2023-06-14T07:35:11;21350.59;;;-141.84;47.66
15260;BME280;34462;51.368;12.364;2023-06-14T07:37:40;21358.75;;;-141.84;47.74
15260;BME280;34462;51.368;12.364;2023-06-14T07:40:10;21368.91;;;-141.84;46.96
15260;BME280;34462;51.368;12.364;2023-06-14T07:42:40;21358.75;;;-141.84;46.52
15260;BME280;34462;51.368;12.364;2023-06-14T07:45:11;21352.63;;;-141.84;47.65
15260;BME280;34462;51.368;12.364;2023-06-14T07:47:41;21370.94;;;-141.84;47.62
15260;BME280;34462;51.368;12.364;2023-06-14T07:50:10;21415.66;;;-141.84;46.81
15260;BME280;34462;51.368;12.364;2023-06-14T07:52:40;21440.06;;;-141.84;46.14
15260;BME280;34462;51.368;12.364;2023-06-14T07:55:08;21462.44;;;-141.84;45.44
15260;BME280;34462;51.368;12.364;2023-06-14T07:57:37;21440.06;;;-141.84;45.67
15260;BME280;34462;51.368;12.364;2023-06-14T08:00:07;21419.72;;;-141.84;45.72
15260;BME280;34462;51.368;12.364;2023-06-14T08:02:39;21490.91;;;-141.84;45.44
15260;BME280;34462;51.368;12.364;2023-06-14T08:05:09;21488.88;;;-141.84;44.93
15260;BME280;34462;51.368;12.364;2023-06-14T08:07:38;21460.41;;;-141.84;45.08
15260;BME280;34462;51.368;12.364;2023-06-14T08:10:07;21484.78;;;-141.84;44.40
15260;BME280;34462;51.368;12.364;2023-06-14T08:12:36;21456.34;;;-141.84;44.70
15260;BME280;34462;51.368;12.364;2023-06-14T08:15:05;21480.72;;;-141.84;45.03
15260;BME280;34462;51.368;12.364;2023-06-14T08:17:42;21460.41;;;-141.84;44.97
15260;BME280;34462;51.368;12.364;2023-06-14T08:20:12;21501.06;;;-141.84;44.93
15260;BME280;34462;51.368;12.364;2023-06-14T08:22:44;21474.63;;;-141.84;44.94
15260;BME280;34462;51.368;12.364;2023-06-14T08:25:14;21456.34;;;-141.84;44.82
15260;BME280;34462;51.368;12.364;2023-06-14T08:27:43;21425.84;;;-141.84;44.52
15260;BME280;34462;51.368;12.364;2023-06-14T08:30:12;21444.13;;;-141.84;44.64
15260;BME280;34462;51.368;12.364;2023-06-14T08:32:42;21436.00;;;-141.84;44.53
15260;BME280;34462;51.368;12.364;2023-06-14T08:35:11;21427.88;;;-141.84;44.87
15260;BME280;34462;51.368;12.364;2023-06-14T08:37:41;21440.06;;;-141.84;44.90
15260;BME280;34462;51.368;12.364;2023-06-14T08:40:19;21492.94;;;-141.84;44.26
15260;BME280;34462;51.368;12.364;2023-06-14T08:42:51;21456.34;;;-141.84;43.51
15260;BME280;34462;51.368;12.364;2023-06-14T08:45:20;21484.78;;;-141.84;43.21
15260;BME280;34462;51.368;12.364;2023-06-14T08:47:54;21484.78;;;-141.84;43.78
15260;BME280;34462;51.368;12.364;2023-06-14T08:50:27;21458.38;;;-141.84;44.16
15260;BME280;34462;51.368;12.364;2023-06-14T08:53:00;21484.78;;;-141.84;43.92
15260;BME280;34462;51.368;12.364;2023-06-14T08:55:30;21505.13;;;-141.84;43.26
15260;BME280;34462;51.368;12.364;2023-06-14T08:58:03;21517.31;;;-141.84;42.62
15260;BME280;34462;51.368;12.364;2023-06-14T09:00:32;21484.78;;;-141.84;43.00
15260;BME280;34462;51.368;12.364;2023-06-14T09:03:03;21519.34;;;-141.84;42.49
15260;BME280;34462;51.368;12.364;2023-06-14T09:05:38;21513.25;;;-141.84;42.68
15260;BME280;34462;51.368;12.364;2023-06-14T09:08:06;21572.22;;;-141.84;42.11
15260;BME280;34462;51.368;12.364;2023-06-14T09:10:35;21566.13;;;-141.84;41.86
15260;BME280;34462;51.368;12.364;2023-06-14T09:13:05;21614.94;;;-141.84;42.14
15260;BME280;34462;51.368;12.364;2023-06-14T09:15:35;21568.16;;;-141.84;42.04
15260;BME280;34462;51.368;12.364;2023-06-14T09:18:05;21572.22;;;-141.84;41.70
15260;BME280;34462;51.368;12.364;2023-06-14T09:20:34;21663.72;;;-141.84;42.01
15260;BME280;34462;51.368;12.364;2023-06-14T09:23:04;21629.16;;;-141.84;40.91
15260;BME280;34462;51.368;12.364;2023-06-14T09:25:42;21596.63;;;-141.84;41.23
15260;BME280;34462;51.368;12.364;2023-06-14T09:28:12;21665.75;;;-141.84;40.72
15260;BME280;34462;51.368;12.364;2023-06-14T09:30:41;21614.94;;;-141.84;41.01
15260;BME280;34462;51.368;12.364;2023-06-14T09:33:11;21643.38;;;-141.84;40.02
15260;BME280;34462;51.368;12.364;2023-06-14T09:35:46;21730.81;;;-141.84;40.06
15260;BME280;34462;51.368;12.364;2023-06-14T09:38:14;21806.06;;;-141.84;39.59
15260;BME280;34462;51.368;12.364;2023-06-14T09:40:43;21978.91;;;-141.84;38.72
15260;BME280;34462;51.368;12.364;2023-06-14T09:43:11;22070.41;;;-141.84;38.53
15260;BME280;34462;51.368;12.364;2023-06-14T09:45:40;22086.69;;;-141.84;38.20
15260;BME280;34462;51.368;12.364;2023-06-14T09:48:14;22147.69;;;-141.84;37.60
15260;BME280;34462;51.368;12.364;2023-06-14T09:50:46;22102.94;;;-141.84;37.33
15260;BME280;34462;51.368;12.364;2023-06-14T09:53:16;21974.84;;;-141.84;38.46
15260;BME280;34462;51.368;12.364;2023-06-14T09:55:50;21791.81;;;-141.84;39.79
15260;BME280;34462;51.368;12.364;2023-06-14T09:58:21;21842.66;;;-141.84;39.76
15260;BME280;34462;51.368;12.364;2023-06-14T10:00:51;21844.69;;;-141.84;40.12
15260;BME280;34462;51.368;12.364;2023-06-14T10:03:29;21871.13;;;-141.84;39.76
15260;BME280;34462;51.368;12.364;2023-06-14T10:06:18;21883.31;;;-141.84;39.38
15260;BME280;34462;51.368;12.364;2023-06-14T10:08:49;22064.31;;;-141.84;37.90
15260;BME280;34462;51.368;12.364;2023-06-14T10:11:17;22192.44;;;-141.84;37.49
15260;BME280;34462;51.368;12.364;2023-06-14T10:13:47;22180.22;;;-141.84;37.17
15260;BME280;34462;51.368;12.364;2023-06-14T10:16:19;22214.78;;;-141.84;36.73
15260;BME280;34462;51.368;12.364;2023-06-14T10:18:54;22202.59;;;-141.84;37.28
15260;BME280;34462;51.368;12.364;2023-06-14T10:21:33;22227.00;;;-141.84;37.00
15260;BME280;34462;51.368;12.364;2023-06-14T10:24:08;22206.66;;;-141.84;37.10
15260;BME280;34462;51.368;12.364;2023-06-14T10:26:50;22131.41;;;-141.84;37.49
15260;BME280;34462;51.368;12.364;2023-06-14T10:29:19;22050.06;;;-141.84;37.90
15260;BME280;34462;51.368;12.364;2023-06-14T10:31:49;22005.34;;;-141.84;38.41
15260;BME280;34462;51.368;12.364;2023-06-14T10:34:24;21911.78;;;-141.84;38.68
15260;BME280;34462;51.368;12.364;2023-06-14T10:37:06;21842.66;;;-141.84;39.19
15260;BME280;34462;51.368;12.364;2023-06-14T10:39:39;21840.63;;;-141.84;39.62
15260;BME280;34462;51.368;12.364;2023-06-14T10:42:09;21793.84;;;-141.84;39.78
15260;BME280;34462;51.368;12.364;2023-06-14T10:44:45;21761.31;;;-141.84;39.62
15260;BME280;34462;51.368;12.364;2023-06-14T10:47:25;21769.47;;;-141.84;39.76
15260;BME280;34462;51.368;12.364;2023-06-14T10:49:57;21728.78;;;-141.84;39.95
15260;BME280;34462;51.368;12.364;2023-06-14T10:52:27;21736.94;;;-141.84;40.02
15260;BME280;34462;51.368;12.364;2023-06-14T10:55:06;21736.94;;;-141.84;40.05
15260;BME280;34462;51.368;12.364;2023-06-14T10:57:41;21808.09;;;-141.84;40.21
15260;BME280;34462;51.368;12.364;2023-06-14T11:00:14;21797.94;;;-141.84;39.73
15260;BME280;34462;51.368;12.364;2023-06-14T11:03:21;21856.91;;;-141.84;39.37
15260;BME280;34462;51.368;12.364;2023-06-14T11:05:59;21799.97;;;-141.84;40.05
15260;BME280;34462;51.368;12.364;2023-06-14T11:11:17;21822.31;;;-141.84;40.29
15260;BME280;34462;51.368;12.364;2023-06-14T11:13:46;21867.06;;;-141.84;39.76
15260;BME280;34462;51.368;12.364;2023-06-14T11:16:16;21928.06;;;-141.84;39.76
15260;BME280;34462;51.368;12.364;2023-06-14T11:18:46;21972.81;;;-141.84;39.35
15260;BME280;34462;51.368;12.364;2023-06-14T11:21:18;22058.22;;;-141.84;39.04
15260;BME280;34462;51.368;12.364;2023-06-14T11:23:50;22054.13;;;-141.84;39.16
15260;BME280;34462;51.368;12.364;2023-06-14T11:26:29;21960.59;;;-141.84;39.43
15260;BME280;34462;51.368;12.364;2023-06-14T11:28:59;21919.94;;;-141.84;39.98
15260;BME280;34462;51.368;12.364;2023-06-14T11:31:28;21826.41;;;-141.84;39.96
15260;BME280;34462;51.368;12.364;2023-06-14T11:33:58;21777.59;;;-141.84;40.91
15260;BME280;34462;51.368;12.364;2023-06-14T11:36:29;21775.56;;;-141.84;40.62
15260;BME280;34462;51.368;12.364;2023-06-14T11:38:59;21901.63;;;-141.84;39.96
15260;BME280;34462;51.368;12.364;2023-06-14T11:41:35;21911.78;;;-141.84;40.09
15260;BME280;34462;51.368;12.364;2023-06-14T11:44:05;21891.47;;;-141.84;39.25
15260;BME280;34462;51.368;12.364;2023-06-14T11:46:34;21985.00;;;-141.84;38.72
15260;BME280;34462;51.368;12.364;2023-06-14T11:49:03;21970.78;;;-141.84;38.84
15260;BME280;34462;51.368;12.364;2023-06-14T11:51:36;22092.78;;;-141.84;38.84
15260;BME280;34462;51.368;12.364;2023-06-14T11:54:06;22149.72;;;-141.84;38.70
15260;BME280;34462;51.368;12.364;2023-06-14T11:56:37;22247.34;;;-141.84;37.95
15260;BME280;34462;51.368;12.364;2023-06-14T11:59:05;22263.59;;;-141.84;38.20
15260;BME280;34462;51.368;12.364;2023-06-14T12:01:37;22279.88;;;-141.84;37.69
15260;BME280;34462;51.368;12.364;2023-06-14T12:04:07;22184.28;;;-141.84;38.30
15260;BME280;34462;51.368;12.364;2023-06-14T12:06:37;22141.59;;;-141.84;38.48
15260;BME280;34462;51.368;12.364;2023-06-14T12:09:08;22137.50;;;-141.84;38.88
15260;BME280;34462;51.368;12.364;2023-06-14T12:11:41;22275.81;;;-141.84;37.90
15260;BME280;34462;51.368;12.364;2023-06-14T12:14:09;22342.91;;;-141.84;37.19
15260;BME280;34462;51.368;12.364;2023-06-14T12:16:39;22385.63;;;-141.84;37.21
15260;BME280;34462;51.368;12.364;2023-06-14T12:19:12;22334.78;;;-141.84;38.19
15260;BME280;34462;51.368;12.364;2023-06-14T12:21:42;22257.50;;;-141.84;38.26
15260;BME280;34462;51.368;12.364;2023-06-14T12:24:12;22180.22;;;-141.84;38.76
15260;BME280;34462;51.368;12.364;2023-06-14T12:26:42;22157.84;;;-141.84;39.18
15260;BME280;34462;51.368;12.364;2023-06-14T12:29:10;22119.22;;;-141.84;39.16
15260;BME280;34462;51.368;12.364;2023-06-14T12:31:40;22241.22;;;-141.84;38.92
15260;BME280;34462;51.368;12.364;2023-06-14T12:34:10;22224.97;;;-141.84;38.81
15260;BME280;34462;51.368;12.364;2023-06-14T12:36:38;22204.63;;;-141.84;38.76
15260;BME280;34462;51.368;12.364;2023-06-14T12:39:13;22159.88;;;-141.84;39.32
15260;BME280;34462;51.368;12.364;2023-06-14T12:41:42;22123.28;;;-141.84;39.37
15260;BME280;34462;51.368;12.364;2023-06-14T12:44:11;22111.09;;;-141.84;39.60
15260;BME280;34462;51.368;12.364;2023-06-14T12:46:40;22155.81;;;-141.84;39.97
15260;BME280;34462;51.368;12.364;2023-06-14T12:49:10;22123.28;;;-141.84;39.68